sensor_id;sensor_type;location;lat;lon;timestamp;P1;durP1;ratioP1;P2;durP2;ratioP2
49514;SDS011;35415;47.870;16.058;2022-08-21T00:00:08;0.40;;;0.40;;
49514;SDS011;35415;47.870;16.058;2022-08-21T00:02:43;0.98;;;0.60;;
49514;SDS011;35415;47.870;16.058;2022-08-21T00:05:14;0.30;;;0.30;;
49514;SDS011;35415;47.870;16.058;2022-08-21T00:07:42;0.60;;;0.60;;
49514;SDS011;35415;47.870;16.058;2022-08-21T00:10:09;0.52;;;0.52;;
49514;SDS011;35415;47.870;16.058;2022-08-21T00:12:38;0.40;;;0.40;;
49514;SDS011;35415;47.870;16.058;2022-08-21T00:15:08;0.55;;;0.55;;
49514;SDS011;35415;47.870;16.058;2022-08-21T00:17:37;0.50;;;0.50;;
49514;SDS011;35415;47.870;16.058;2022-08-21T00:20:05;0.50;;;0.50;;
49514;SDS011;35415;47.870;16.058;2022-08-21T00:22:34;1.05;;;0.60;;
49514;SDS011;35415;47.870;16.058;2022-08-21T00:25:02;0.50;;;0.50;;
49514;SDS011;35415;47.870;16.058;2022-08-21T00:27:31;0.45;;;0.45;;
49514;SDS011;35415;47.870;16.058;2022-08-21T00:30:00;4.32;;;0.70;;
49514;SDS011;35415;47.870;16.058;2022-08-21T00:32:28;0.47;;;0.47;;
49514;SDS011;35415;47.870;16.058;2022-08-21T00:34:55;0.50;;;0.50;;
49514;SDS011;35415;47.870;16.058;2022-08-21T00:37:23;0.50;;;0.50;;
49514;SDS011;35415;47.870;16.058;2022-08-21T00:39:50;0.50;;;0.50;;
49514;SDS011;35415;47.870;16.058;2022-08-21T00:42:18;0.50;;;0.50;;
49514;SDS011;35415;47.870;16.058;2022-08-21T00:44:46;0.50;;;0.50;;
49514;SDS011;35415;47.870;16.058;2022-08-21T00:47:17;1.40;;;1.00;;
49514;SDS011;35415;47.870;16.058;2022-08-21T00:49:45;1.00;;;0.60;;
49514;SDS011;35415;47.870;16.058;2022-08-21T00:52:13;0.52;;;0.52;;
49514;SDS011;35415;47.870;16.058;2022-08-21T00:54:45;0.50;;;0.50;;
49514;SDS011;35415;47.870;16.058;2022-08-21T00:57:16;0.50;;;0.50;;
49514;SDS011;35415;47.870;16.058;2022-08-21T00:59:47;0.60;;;0.60;;
49514;SDS011;35415;47.870;16.058;2022-08-21T01:02:21;1.02;;;0.63;;
49514;SDS011;35415;47.870;16.058;2022-08-21T01:04:49;0.60;;;0.60;;
49514;SDS011;35415;47.870;16.058;2022-08-21T01:07:16;2.30;;;0.50;;
49514;SDS011;35415;47.870;16.058;2022-08-21T01:09:43;0.40;;;0.40;;
49514;SDS011;35415;47.870;16.058;2022-08-21T01:12:12;0.80;;;0.80;;
49514;SDS011;35415;47.870;16.058;2022-08-21T01:14:41;0.70;;;0.70;;
49514;SDS011;35415;47.870;16.058;2022-08-21T01:17:09;0.40;;;0.40;;
49514;SDS011;35415;47.870;16.058;2022-08-21T01:19:38;0.63;;;0.63;;
49514;SDS011;35415;47.870;16.058;2022-08-21T01:22:07;0.50;;;0.50;;
49514;SDS011;35415;47.870;16.058;2022-08-21T01:24:35;0.60;;;0.60;;
49514;SDS011;35415;47.870;16.058;2022-08-21T01:27:02;0.52;;;0.50;;
49514;SDS011;35415;47.870;16.058;2022-08-21T01:29:30;0.85;;;0.60;;
49514;SDS011;35415;47.870;16.058;2022-08-21T01:32:04;0.82;;;0.60;;
49514;SDS011;35415;47.870;16.058;2022-08-21T01:34:34;0.50;;;0.50;;
49514;SDS011;35415;47.870;16.058;2022-08-21T01:37:04;0.70;;;0.70;;
49514;SDS011;35415;47.870;16.058;2022-08-21T01:39:33;0.73;;;0.73;;
49514;SDS011;35415;47.870;16.058;2022-08-21T01:42:00;1.70;;;0.80;;
49514;SDS011;35415;47.870;16.058;2022-08-21T01:44:27;0.90;;;0.90;;
49514;SDS011;35415;47.870;16.058;2022-08-21T01:46:55;1.02;;;0.93;;
49514;SDS011;35415;47.870;16.058;2022-08-21T01:49:24;0.88;;;0.88;;
49514;SDS011;35415;47.870;16.058;2022-08-21T01:51:52;1.05;;;1.00;;
49514;SDS011;35415;47.870;16.058;2022-08-21T01:54:19;1.50;;;1.40;;
49514;SDS011;35415;47.870;16.058;2022-08-21T01:56:49;1.30;;;1.20;;
49514;SDS011;35415;47.870;16.058;2022-08-21T01:59:17;1.02;;;1.00;;
49514;SDS011;35415;47.870;16.058;2022-08-21T02:01:45;1.35;;;1.25;;
49514;SDS011;35415;47.870;16.058;2022-08-21T02:04:12;1.20;;;1.10;;
49514;SDS011;35415;47.870;16.058;2022-08-21T02:06:39;1.05;;;1.00;;
49514;SDS011;35415;47.870;16.058;2022-08-21T02:09:09;1.10;;;1.00;;
49514;SDS011;35415;47.870;16.058;2022-08-21T02:11:37;1.10;;;1.00;;
49514;SDS011;35415;47.870;16.058;2022-08-21T02:14:07;1.20;;;1.10;;
49514;SDS011;35415;47.870;16.058;2022-08-21T02:16:35;1.63;;;1.35;;
49514;SDS011;35415;47.870;16.058;2022-08-21T02:19:02;1.50;;;1.40;;
49514;SDS011;35415;47.870;16.058;2022-08-21T02:21:29;2.42;;;1.48;;
49514;SDS011;35415;47.870;16.058;2022-08-21T02:23:57;1.65;;;1.40;;
49514;SDS011;35415;47.870;16.058;2022-08-21T02:26:24;1.33;;;1.20;;
49514;SDS011;35415;47.870;16.058;2022-08-21T02:28:51;1.83;;;1.50;;
49514;SDS011;35415;47.870;16.058;2022-08-21T02:31:20;1.95;;;1.75;;
49514;SDS011;35415;47.870;16.058;2022-08-21T02:33:47;1.45;;;1.35;;
49514;SDS011;35415;47.870;16.058;2022-08-21T02:36:14;4.15;;;1.63;;
49514;SDS011;35415;47.870;16.058;2022-08-21T02:38:41;1.40;;;1.30;;
49514;SDS011;35415;47.870;16.058;2022-08-21T02:41:11;1.30;;;1.20;;
49514;SDS011;35415;47.870;16.058;2022-08-21T02:43:41;1.27;;;1.17;;
49514;SDS011;35415;47.870;16.058;2022-08-21T02:46:10;2.30;;;1.33;;
49514;SDS011;35415;47.870;16.058;2022-08-21T02:48:42;1.25;;;1.15;;
49514;SDS011;35415;47.870;16.058;2022-08-21T02:51:10;1.45;;;1.35;;
49514;SDS011;35415;47.870;16.058;2022-08-21T02:53:39;1.83;;;1.40;;
49514;SDS011;35415;47.870;16.058;2022-08-21T02:56:08;2.03;;;1.63;;
49514;SDS011;35415;47.870;16.058;2022-08-21T02:58:37;1.40;;;1.30;;
49514;SDS011;35415;47.870;16.058;2022-08-21T03:01:06;3.60;;;1.48;;
49514;SDS011;35415;47.870;16.058;2022-08-21T03:03:35;1.73;;;1.42;;
49514;SDS011;35415;47.870;16.058;2022-08-21T03:06:05;1.20;;;1.10;;
49514;SDS011;35415;47.870;16.058;2022-08-21T03:08:34;1.30;;;1.20;;
49514;SDS011;35415;47.870;16.058;2022-08-21T03:11:02;1.27;;;1.17;;
49514;SDS011;35415;47.870;16.058;2022-08-21T03:13:29;1.38;;;1.20;;
49514;SDS011;35415;47.870;16.058;2022-08-21T03:15:57;1.13;;;1.00;;
49514;SDS011;35415;47.870;16.058;2022-08-21T03:18:24;0.93;;;0.88;;
49514;SDS011;35415;47.870;16.058;2022-08-21T03:20:51;1.00;;;1.00;;
49514;SDS011;35415;47.870;16.058;2022-08-21T03:23:20;1.60;;;1.35;;
49514;SDS011;35415;47.870;16.058;2022-08-21T03:25:48;1.02;;;1.00;;
49514;SDS011;35415;47.870;16.058;2022-08-21T03:28:17;1.08;;;1.02;;
49514;SDS011;35415;47.870;16.058;2022-08-21T03:30:48;0.80;;;0.80;;
49514;SDS011;35415;47.870;16.058;2022-08-21T03:33:17;0.80;;;0.80;;
49514;SDS011;35415;47.870;16.058;2022-08-21T03:35:46;4.85;;;1.55;;
49514;SDS011;35415;47.870;16.058;2022-08-21T03:38:16;0.90;;;0.90;;
49514;SDS011;35415;47.870;16.058;2022-08-21T03:40:46;1.38;;;1.00;;
49514;SDS011;35415;47.870;16.058;2022-08-21T03:43:13;0.90;;;0.90;;
49514;SDS011;35415;47.870;16.058;2022-08-21T03:45:40;0.98;;;0.80;;
49514;SDS011;35415;47.870;16.058;2022-08-21T03:48:07;0.70;;;0.70;;
49514;SDS011;35415;47.870;16.058;2022-08-21T03:50:38;1.00;;;0.90;;
49514;SDS011;35415;47.870;16.058;2022-08-21T03:53:13;0.98;;;0.98;;
49514;SDS011;35415;47.870;16.058;2022-08-21T03:55:41;1.10;;;1.00;;
49514;SDS011;35415;47.870;16.058;2022-08-21T03:58:09;0.80;;;0.80;;
49514;SDS011;35415;47.870;16.058;2022-08-21T04:00:36;0.85;;;0.82;;
49514;SDS011;35415;47.870;16.058;2022-08-21T04:03:04;1.05;;;0.73;;
49514;SDS011;35415;47.870;16.058;2022-08-21T04:05:31;1.35;;;0.80;;
49514;SDS011;35415;47.870;16.058;2022-08-21T04:07:59;2.55;;;0.82;;
49514;SDS011;35415;47.870;16.058;2022-08-21T04:10:29;0.80;;;0.80;;
49514;SDS011;35415;47.870;16.058;2022-08-21T04:12:59;1.02;;;1.00;;
49514;SDS011;35415;47.870;16.058;2022-08-21T04:15:28;0.80;;;0.80;;
49514;SDS011;35415;47.870;16.058;2022-08-21T04:17:55;2.78;;;0.82;;
49514;SDS011;35415;47.870;16.058;2022-08-21T04:20:22;1.17;;;0.90;;
49514;SDS011;35415;47.870;16.058;2022-08-21T04:22:50;0.80;;;0.80;;
49514;SDS011;35415;47.870;16.058;2022-08-21T04:25:18;0.70;;;0.70;;
49514;SDS011;35415;47.870;16.058;2022-08-21T04:27:46;1.10;;;0.85;;
49514;SDS011;35415;47.870;16.058;2022-08-21T04:30:13;0.90;;;0.90;;
49514;SDS011;35415;47.870;16.058;2022-08-21T04:32:44;1.00;;;0.90;;
49514;SDS011;35415;47.870;16.058;2022-08-21T04:35:13;0.70;;;0.70;;
49514;SDS011;35415;47.870;16.058;2022-08-21T04:37:41;0.80;;;0.80;;
49514;SDS011;35415;47.870;16.058;2022-08-21T04:40:09;0.80;;;0.80;;
49514;SDS011;35415;47.870;16.058;2022-08-21T04:42:41;1.02;;;0.93;;
49514;SDS011;35415;47.870;16.058;2022-08-21T04:45:15;1.13;;;0.90;;
49514;SDS011;35415;47.870;16.058;2022-08-21T04:47:47;0.65;;;0.65;;
49514;SDS011;35415;47.870;16.058;2022-08-21T04:50:15;0.80;;;0.80;;
49514;SDS011;35415;47.870;16.058;2022-08-21T04:52:43;0.80;;;0.80;;
49514;SDS011;35415;47.870;16.058;2022-08-21T04:55:10;0.70;;;0.65;;
49514;SDS011;35415;47.870;16.058;2022-08-21T04:57:38;0.60;;;0.60;;
49514;SDS011;35415;47.870;16.058;2022-08-21T05:00:07;0.70;;;0.70;;
49514;SDS011;35415;47.870;16.058;2022-08-21T05:02:38;0.77;;;0.73;;
49514;SDS011;35415;47.870;16.058;2022-08-21T05:05:08;0.50;;;0.50;;
49514;SDS011;35415;47.870;16.058;2022-08-21T05:07:37;1.10;;;0.70;;
49514;SDS011;35415;47.870;16.058;2022-08-21T05:10:04;0.65;;;0.50;;
49514;SDS011;35415;47.870;16.058;2022-08-21T05:12:34;0.82;;;0.50;;
49514;SDS011;35415;47.870;16.058;2022-08-21T05:15:02;0.52;;;0.52;;
49514;SDS011;35415;47.870;16.058;2022-08-21T05:17:30;0.75;;;0.75;;
49514;SDS011;35415;47.870;16.058;2022-08-21T05:19:57;1.40;;;0.80;;
49514;SDS011;35415;47.870;16.058;2022-08-21T05:22:25;0.73;;;0.73;;
49514;SDS011;35415;47.870;16.058;2022-08-21T05:24:52;0.50;;;0.50;;
49514;SDS011;35415;47.870;16.058;2022-08-21T05:27:19;0.47;;;0.47;;
49514;SDS011;35415;47.870;16.058;2022-08-21T05:29:46;0.32;;;0.32;;
49514;SDS011;35415;47.870;16.058;2022-08-21T05:32:13;0.68;;;0.68;;
49514;SDS011;35415;47.870;16.058;2022-08-21T05:34:41;0.75;;;0.65;;
49514;SDS011;35415;47.870;16.058;2022-08-21T05:37:10;0.60;;;0.60;;
49514;SDS011;35415;47.870;16.058;2022-08-21T05:39:39;0.63;;;0.60;;
49514;SDS011;35415;47.870;16.058;2022-08-21T05:42:06;0.50;;;0.50;;
49514;SDS011;35415;47.870;16.058;2022-08-21T05:44:33;0.50;;;0.50;;
49514;SDS011;35415;47.870;16.058;2022-08-21T05:47:04;0.50;;;0.50;;
49514;SDS011;35415;47.870;16.058;2022-08-21T05:49:32;0.65;;;0.65;;
49514;SDS011;35415;47.870;16.058;2022-08-21T05:51:59;0.63;;;0.63;;
49514;SDS011;35415;47.870;16.058;2022-08-21T05:54:27;0.60;;;0.60;;
49514;SDS011;35415;47.870;16.058;2022-08-21T05:56:56;1.08;;;0.80;;
49514;SDS011;35415;47.870;16.058;2022-08-21T05:59:23;0.60;;;0.60;;
49514;SDS011;35415;47.870;16.058;2022-08-21T06:01:50;0.50;;;0.50;;
49514;SDS011;35415;47.870;16.058;2022-08-21T06:04:18;1.15;;;0.70;;
49514;SDS011;35415;47.870;16.058;2022-08-21T06:06:45;1.77;;;1.38;;
49514;SDS011;35415;47.870;16.058;2022-08-21T06:09:13;0.63;;;0.60;;
49514;SDS011;35415;47.870;16.058;2022-08-21T06:11:41;0.80;;;0.80;;
49514;SDS011;35415;47.870;16.058;2022-08-21T06:14:09;0.65;;;0.65;;
49514;SDS011;35415;47.870;16.058;2022-08-21T06:16:37;0.60;;;0.60;;
49514;SDS011;35415;47.870;16.058;2022-08-21T06:19:04;0.85;;;0.70;;
49514;SDS011;35415;47.870;16.058;2022-08-21T06:21:31;0.60;;;0.60;;
49514;SDS011;35415;47.870;16.058;2022-08-21T06:23:58;0.60;;;0.60;;
49514;SDS011;35415;47.870;16.058;2022-08-21T06:26:25;0.47;;;0.47;;
49514;SDS011;35415;47.870;16.058;2022-08-21T06:28:53;0.95;;;0.60;;
49514;SDS011;35415;47.870;16.058;2022-08-21T06:31:22;0.50;;;0.50;;
49514;SDS011;35415;47.870;16.058;2022-08-21T06:33:51;1.95;;;0.70;;
49514;SDS011;35415;47.870;16.058;2022-08-21T06:36:19;0.90;;;0.60;;
49514;SDS011;35415;47.870;16.058;2022-08-21T06:38:47;0.50;;;0.50;;
49514;SDS011;35415;47.870;16.058;2022-08-21T06:41:14;1.17;;;0.65;;
49514;SDS011;35415;47.870;16.058;2022-08-21T06:43:42;2.33;;;0.50;;
49514;SDS011;35415;47.870;16.058;2022-08-21T06:46:09;1.15;;;0.60;;
49514;SDS011;35415;47.870;16.058;2022-08-21T06:48:39;0.50;;;0.50;;
49514;SDS011;35415;47.870;16.058;2022-08-21T06:51:07;0.95;;;0.95;;
49514;SDS011;35415;47.870;16.058;2022-08-21T06:53:35;0.57;;;0.57;;
49514;SDS011;35415;47.870;16.058;2022-08-21T06:56:06;0.50;;;0.50;;
49514;SDS011;35415;47.870;16.058;2022-08-21T06:58:33;1.65;;;0.60;;
49514;SDS011;35415;47.870;16.058;2022-08-21T07:01:01;0.95;;;0.68;;
49514;SDS011;35415;47.870;16.058;2022-08-21T07:03:30;0.43;;;0.43;;
49514;SDS011;35415;47.870;16.058;2022-08-21T07:06:00;0.50;;;0.50;;
49514;SDS011;35415;47.870;16.058;2022-08-21T07:08:28;0.93;;;0.55;;
49514;SDS011;35415;47.870;16.058;2022-08-21T07:10:57;0.52;;;0.52;;
49514;SDS011;35415;47.870;16.058;2022-08-21T07:13:26;0.50;;;0.50;;
49514;SDS011;35415;47.870;16.058;2022-08-21T07:15:55;0.70;;;0.68;;
49514;SDS011;35415;47.870;16.058;2022-08-21T07:18:22;0.60;;;0.60;;
49514;SDS011;35415;47.870;16.058;2022-08-21T07:20:50;0.60;;;0.60;;
49514;SDS011;35415;47.870;16.058;2022-08-21T07:23:21;0.70;;;0.70;;
49514;SDS011;35415;47.870;16.058;2022-08-21T07:25:53;2.05;;;1.45;;
49514;SDS011;35415;47.870;16.058;2022-08-21T07:28:21;0.63;;;0.63;;
49514;SDS011;35415;47.870;16.058;2022-08-21T07:30:49;0.70;;;0.70;;
49514;SDS011;35415;47.870;16.058;2022-08-21T07:33:18;0.60;;;0.60;;
49514;SDS011;35415;47.870;16.058;2022-08-21T07:35:45;0.70;;;0.70;;
49514;SDS011;35415;47.870;16.058;2022-08-21T07:38:13;0.73;;;0.73;;
49514;SDS011;35415;47.870;16.058;2022-08-21T07:40:41;0.77;;;0.63;;
49514;SDS011;35415;47.870;16.058;2022-08-21T07:43:09;0.70;;;0.70;;
49514;SDS011;35415;47.870;16.058;2022-08-21T07:45:36;0.70;;;0.70;;
49514;SDS011;35415;47.870;16.058;2022-08-21T07:48:04;1.17;;;1.08;;
49514;SDS011;35415;47.870;16.058;2022-08-21T07:50:32;2.20;;;0.90;;
49514;SDS011;35415;47.870;16.058;2022-08-21T07:52:59;0.80;;;0.80;;
49514;SDS011;35415;47.870;16.058;2022-08-21T07:55:27;1.30;;;0.98;;
49514;SDS011;35415;47.870;16.058;2022-08-21T07:57:56;0.90;;;0.90;;
49514;SDS011;35415;47.870;16.058;2022-08-21T08:00:24;0.80;;;0.80;;
49514;SDS011;35415;47.870;16.058;2022-08-21T08:02:54;1.13;;;1.02;;
49514;SDS011;35415;47.870;16.058;2022-08-21T08:05:23;0.90;;;0.90;;
49514;SDS011;35415;47.870;16.058;2022-08-21T08:07:52;1.35;;;1.00;;
49514;SDS011;35415;47.870;16.058;2022-08-21T08:10:20;1.08;;;1.02;;
49514;SDS011;35415;47.870;16.058;2022-08-21T08:12:48;2.00;;;1.10;;
49514;SDS011;35415;47.870;16.058;2022-08-21T08:15:20;1.55;;;1.02;;
49514;SDS011;35415;47.870;16.058;2022-08-21T08:17:49;1.50;;;1.00;;
49514;SDS011;35415;47.870;16.058;2022-08-21T08:20:17;1.35;;;0.98;;
49514;SDS011;35415;47.870;16.058;2022-08-21T08:22:45;1.17;;;0.85;;
49514;SDS011;35415;47.870;16.058;2022-08-21T08:25:14;1.48;;;1.20;;
49514;SDS011;35415;47.870;16.058;2022-08-21T08:27:42;1.30;;;1.10;;
49514;SDS011;35415;47.870;16.058;2022-08-21T08:30:10;4.80;;;4.32;;
49514;SDS011;35415;47.870;16.058;2022-08-21T08:32:41;7.85;;;4.20;;
49514;SDS011;35415;47.870;16.058;2022-08-21T08:35:09;4.63;;;3.90;;
49514;SDS011;35415;47.870;16.058;2022-08-21T08:37:37;1.52;;;1.20;;
49514;SDS011;35415;47.870;16.058;2022-08-21T08:40:06;1.35;;;1.25;;
49514;SDS011;35415;47.870;16.058;2022-08-21T08:42:37;1.48;;;1.30;;
49514;SDS011;35415;47.870;16.058;2022-08-21T08:45:05;1.27;;;1.15;;
49514;SDS011;35415;47.870;16.058;2022-08-21T08:47:35;1.00;;;0.90;;
49514;SDS011;35415;47.870;16.058;2022-08-21T08:50:08;1.10;;;1.00;;
49514;SDS011;35415;47.870;16.058;2022-08-21T08:52:42;1.95;;;1.75;;
49514;SDS011;35415;47.870;16.058;2022-08-21T08:55:15;6.85;;;4.00;;
49514;SDS011;35415;47.870;16.058;2022-08-21T08:57:46;2.92;;;1.98;;
49514;SDS011;35415;47.870;16.058;2022-08-21T09:00:18;2.95;;;2.40;;
49514;SDS011;35415;47.870;16.058;2022-08-21T09:02:49;0.90;;;0.90;;
49514;SDS011;35415;47.870;16.058;2022-08-21T09:05:23;2.30;;;1.08;;
49514;SDS011;35415;47.870;16.058;2022-08-21T09:07:56;0.70;;;0.70;;
49514;SDS011;35415;47.870;16.058;2022-08-21T09:10:44;1.02;;;0.90;;
49514;SDS011;35415;47.870;16.058;2022-08-21T09:13:20;1.88;;;1.00;;
49514;SDS011;35415;47.870;16.058;2022-08-21T09:15:53;0.90;;;0.90;;
49514;SDS011;35415;47.870;16.058;2022-08-21T09:18:35;0.80;;;0.80;;
49514;SDS011;35415;47.870;16.058;2022-08-21T09:21:18;1.20;;;0.90;;
49514;SDS011;35415;47.870;16.058;2022-08-21T09:23:52;1.20;;;1.10;;
49514;SDS011;35415;47.870;16.058;2022-08-21T09:26:25;1.02;;;0.90;;
49514;SDS011;35415;47.870;16.058;2022-08-21T09:28:54;0.85;;;0.85;;
49514;SDS011;35415;47.870;16.058;2022-08-21T09:31:27;0.90;;;0.90;;
49514;SDS011;35415;47.870;16.058;2022-08-21T09:33:59;0.90;;;0.90;;
49514;SDS011;35415;47.870;16.058;2022-08-21T09:36:33;0.88;;;0.88;;
49514;SDS011;35415;47.870;16.058;2022-08-21T09:39:04;0.90;;;0.90;;
49514;SDS011;35415;47.870;16.058;2022-08-21T09:41:33;0.88;;;0.88;;
49514;SDS011;35415;47.870;16.058;2022-08-21T09:44:02;0.90;;;0.90;;
49514;SDS011;35415;47.870;16.058;2022-08-21T09:46:33;0.90;;;0.90;;
49514;SDS011;35415;47.870;16.058;2022-08-21T09:49:02;0.70;;;0.70;;
49514;SDS011;35415;47.870;16.058;2022-08-21T09:51:32;2.25;;;0.90;;
49514;SDS011;35415;47.870;16.058;2022-08-21T09:54:11;1.02;;;1.00;;
49514;SDS011;35415;47.870;16.058;2022-08-21T09:56:52;0.80;;;0.80;;
49514;SDS011;35415;47.870;16.058;2022-08-21T09:59:39;0.98;;;0.98;;
49514;SDS011;35415;47.870;16.058;2022-08-21T10:02:19;1.67;;;0.82;;
49514;SDS011;35415;47.870;16.058;2022-08-21T10:04:53;0.70;;;0.70;;
49514;SDS011;35415;47.870;16.058;2022-08-21T10:07:25;0.73;;;0.73;;
49514;SDS011;35415;47.870;16.058;2022-08-21T10:09:57;0.88;;;0.88;;
49514;SDS011;35415;47.870;16.058;2022-08-21T10:12:28;0.98;;;0.98;;
49514;SDS011;35415;47.870;16.058;2022-08-21T10:15:07;1.95;;;1.80;;
49514;SDS011;35415;47.870;16.058;2022-08-21T10:17:48;1.23;;;1.15;;
49514;SDS011;35415;47.870;16.058;2022-08-21T10:20:25;4.30;;;3.08;;
49514;SDS011;35415;47.870;16.058;2022-08-21T10:23:06;1.50;;;1.40;;
49514;SDS011;35415;47.870;16.058;2022-08-21T10:25:47;1.20;;;1.10;;
49514;SDS011;35415;47.870;16.058;2022-08-21T10:28:20;0.90;;;0.80;;
49514;SDS011;35415;47.870;16.058;2022-08-21T10:30:56;0.93;;;0.82;;
49514;SDS011;35415;47.870;16.058;2022-08-21T10:33:31;0.95;;;0.90;;
49514;SDS011;35415;47.870;16.058;2022-08-21T10:36:09;1.65;;;1.00;;
49514;SDS011;35415;47.870;16.058;2022-08-21T10:38:52;0.80;;;0.80;;
49514;SDS011;35415;47.870;16.058;2022-08-21T10:41:28;1.20;;;1.10;;
49514;SDS011;35415;47.870;16.058;2022-08-21T10:44:09;2.55;;;1.70;;
49514;SDS011;35415;47.870;16.058;2022-08-21T10:46:48;2.58;;;1.75;;
49514;SDS011;35415;47.870;16.058;2022-08-21T10:49:22;3.40;;;2.22;;
49514;SDS011;35415;47.870;16.058;2022-08-21T10:52:02;4.15;;;1.85;;
49514;SDS011;35415;47.870;16.058;2022-08-21T10:54:50;1.17;;;1.08;;
49514;SDS011;35415;47.870;16.058;2022-08-21T10:57:23;1.17;;;1.10;;
49514;SDS011;35415;47.870;16.058;2022-08-21T10:59:57;0.90;;;0.90;;
49514;SDS011;35415;47.870;16.058;2022-08-21T11:02:31;1.20;;;1.05;;
49514;SDS011;35415;47.870;16.058;2022-08-21T11:05:05;0.85;;;0.85;;
49514;SDS011;35415;47.870;16.058;2022-08-21T11:07:39;1.63;;;1.00;;
49514;SDS011;35415;47.870;16.058;2022-08-21T11:10:14;1.15;;;1.00;;
49514;SDS011;35415;47.870;16.058;2022-08-21T11:12:47;1.17;;;1.00;;
49514;SDS011;35415;47.870;16.058;2022-08-21T11:15:24;0.85;;;0.85;;
49514;SDS011;35415;47.870;16.058;2022-08-21T11:17:58;1.13;;;1.00;;
49514;SDS011;35415;47.870;16.058;2022-08-21T11:20:32;1.13;;;1.02;;
49514;SDS011;35415;47.870;16.058;2022-08-21T11:23:07;0.98;;;0.98;;
49514;SDS011;35415;47.870;16.058;2022-08-21T11:25:42;0.90;;;0.90;;
49514;SDS011;35415;47.870;16.058;2022-08-21T11:28:15;0.98;;;0.90;;
49514;SDS011;35415;47.870;16.058;2022-08-21T11:30:52;1.00;;;0.98;;
49514;SDS011;35415;47.870;16.058;2022-08-21T11:33:31;0.85;;;0.85;;
49514;SDS011;35415;47.870;16.058;2022-08-21T11:36:13;0.90;;;0.90;;
49514;SDS011;35415;47.870;16.058;2022-08-21T11:38:53;1.58;;;1.10;;
49514;SDS011;35415;47.870;16.058;2022-08-21T11:41:29;0.70;;;0.70;;
49514;SDS011;35415;47.870;16.058;2022-08-21T11:44:02;0.90;;;0.90;;
49514;SDS011;35415;47.870;16.058;2022-08-21T11:46:39;0.90;;;0.90;;
49514;SDS011;35415;47.870;16.058;2022-08-21T11:54:48;0.80;;;0.80;;
49514;SDS011;35415;47.870;16.058;2022-08-21T11:57:26;0.88;;;0.73;;
49514;SDS011;35415;47.870;16.058;2022-08-21T11:59:59;0.60;;;0.60;;
49514;SDS011;35415;47.870;16.058;2022-08-21T12:02:31;1.00;;;0.93;;
49514;SDS011;35415;47.870;16.058;2022-08-21T12:05:06;0.82;;;0.82;;
49514;SDS011;35415;47.870;16.058;2022-08-21T12:07:37;0.70;;;0.70;;
49514;SDS011;35415;47.870;16.058;2022-08-21T12:10:07;0.93;;;0.90;;
49514;SDS011;35415;47.870;16.058;2022-08-21T12:12:39;0.73;;;0.73;;
49514;SDS011;35415;47.870;16.058;2022-08-21T12:17:55;1.35;;;1.00;;
49514;SDS011;35415;47.870;16.058;2022-08-21T12:20:42;1.50;;;0.75;;
49514;SDS011;35415;47.870;16.058;2022-08-21T12:23:18;1.05;;;0.95;;
49514;SDS011;35415;47.870;16.058;2022-08-21T12:26:03;1.02;;;0.80;;
49514;SDS011;35415;47.870;16.058;2022-08-21T12:28:47;0.93;;;0.90;;
49514;SDS011;35415;47.870;16.058;2022-08-21T12:31:22;1.08;;;0.88;;
49514;SDS011;35415;47.870;16.058;2022-08-21T12:33:51;1.27;;;1.10;;
49514;SDS011;35415;47.870;16.058;2022-08-21T12:36:24;1.10;;;1.00;;
49514;SDS011;35415;47.870;16.058;2022-08-21T12:39:10;1.73;;;0.80;;
49514;SDS011;35415;47.870;16.058;2022-08-21T12:41:44;0.70;;;0.60;;
49514;SDS011;35415;47.870;16.058;2022-08-21T12:44:24;1.83;;;1.45;;
49514;SDS011;35415;47.870;16.058;2022-08-21T12:47:01;0.93;;;0.80;;
49514;SDS011;35415;47.870;16.058;2022-08-21T12:49:31;0.70;;;0.70;;
49514;SDS011;35415;47.870;16.058;2022-08-21T12:52:02;0.60;;;0.60;;
49514;SDS011;35415;47.870;16.058;2022-08-21T12:54:38;0.80;;;0.80;;
49514;SDS011;35415;47.870;16.058;2022-08-21T12:57:08;1.23;;;1.10;;
49514;SDS011;35415;47.870;16.058;2022-08-21T12:59:45;1.08;;;0.98;;
49514;SDS011;35415;47.870;16.058;2022-08-21T13:02:15;1.13;;;0.90;;
49514;SDS011;35415;47.870;16.058;2022-08-21T13:07:13;1.17;;;0.80;;
49514;SDS011;35415;47.870;16.058;2022-08-21T13:09:44;1.17;;;0.90;;
49514;SDS011;35415;47.870;16.058;2022-08-21T13:12:14;1.20;;;1.10;;
49514;SDS011;35415;47.870;16.058;2022-08-21T13:14:45;1.08;;;0.73;;
49514;SDS011;35415;47.870;16.058;2022-08-21T13:17:16;1.50;;;0.90;;
49514;SDS011;35415;47.870;16.058;2022-08-21T13:19:52;1.15;;;1.13;;
49514;SDS011;35415;47.870;16.058;2022-08-21T13:22:20;1.05;;;0.95;;
49514;SDS011;35415;47.870;16.058;2022-08-21T13:24:47;1.38;;;0.90;;
49514;SDS011;35415;47.870;16.058;2022-08-21T13:27:16;1.05;;;0.90;;
49514;SDS011;35415;47.870;16.058;2022-08-21T13:29:47;0.88;;;0.88;;
49514;SDS011;35415;47.870;16.058;2022-08-21T13:32:17;0.95;;;0.85;;
49514;SDS011;35415;47.870;16.058;2022-08-21T13:34:49;0.88;;;0.82;;
49514;SDS011;35415;47.870;16.058;2022-08-21T13:37:16;1.15;;;0.98;;
49514;SDS011;35415;47.870;16.058;2022-08-21T13:39:48;1.00;;;0.90;;
49514;SDS011;35415;47.870;16.058;2022-08-21T13:42:18;1.58;;;1.00;;
49514;SDS011;35415;47.870;16.058;2022-08-21T13:44:47;1.25;;;0.88;;
49514;SDS011;35415;47.870;16.058;2022-08-21T13:47:15;1.40;;;1.00;;
49514;SDS011;35415;47.870;16.058;2022-08-21T13:49:44;1.10;;;1.00;;
49514;SDS011;35415;47.870;16.058;2022-08-21T13:52:14;0.80;;;0.80;;
49514;SDS011;35415;47.870;16.058;2022-08-21T13:54:42;1.55;;;1.17;;
49514;SDS011;35415;47.870;16.058;2022-08-21T13:57:17;1.42;;;1.20;;
49514;SDS011;35415;47.870;16.058;2022-08-21T13:59:47;1.35;;;1.20;;
49514;SDS011;35415;47.870;16.058;2022-08-21T14:02:18;1.33;;;1.20;;
49514;SDS011;35415;47.870;16.058;2022-08-21T14:04:50;1.05;;;1.05;;
49514;SDS011;35415;47.870;16.058;2022-08-21T14:07:28;1.90;;;1.30;;
49514;SDS011;35415;47.870;16.058;2022-08-21T14:10:00;1.45;;;1.35;;
49514;SDS011;35415;47.870;16.058;2022-08-21T14:12:35;2.45;;;1.88;;
49514;SDS011;35415;47.870;16.058;2022-08-21T14:15:09;2.47;;;1.30;;
49514;SDS011;35415;47.870;16.058;2022-08-21T14:20:08;1.50;;;1.40;;
49514;SDS011;35415;47.870;16.058;2022-08-21T14:22:39;1.70;;;1.40;;
49514;SDS011;35415;47.870;16.058;2022-08-21T14:25:10;1.35;;;1.25;;
49514;SDS011;35415;47.870;16.058;2022-08-21T14:27:40;1.33;;;1.23;;
49514;SDS011;35415;47.870;16.058;2022-08-21T14:30:14;1.30;;;1.20;;
49514;SDS011;35415;47.870;16.058;2022-08-21T14:32:45;1.60;;;1.20;;
49514;SDS011;35415;47.870;16.058;2022-08-21T14:35:13;1.52;;;1.40;;
49514;SDS011;35415;47.870;16.058;2022-08-21T14:37:42;2.20;;;1.77;;
49514;SDS011;35415;47.870;16.058;2022-08-21T14:40:11;2.00;;;1.40;;
49514;SDS011;35415;47.870;16.058;2022-08-21T14:42:39;2.83;;;1.70;;
49514;SDS011;35415;47.870;16.058;2022-08-21T14:45:10;1.35;;;1.25;;
49514;SDS011;35415;47.870;16.058;2022-08-21T14:47:42;2.05;;;1.30;;
49514;SDS011;35415;47.870;16.058;2022-08-21T14:50:09;1.65;;;1.35;;
49514;SDS011;35415;47.870;16.058;2022-08-21T14:52:38;3.85;;;1.35;;
49514;SDS011;35415;47.870;16.058;2022-08-21T14:55:07;4.20;;;1.30;;
49514;SDS011;35415;47.870;16.058;2022-08-21T14:57:39;2.42;;;1.60;;
49514;SDS011;35415;47.870;16.058;2022-08-21T15:00:09;1.40;;;1.30;;
49514;SDS011;35415;47.870;16.058;2022-08-21T15:02:39;5.00;;;1.73;;
49514;SDS011;35415;47.870;16.058;2022-08-21T15:05:07;1.77;;;1.67;;